Time;durP1;ratioP1;P1;durP2;ratioP2;P2;SDS_P1;SDS_P2;PMS_P1;PMS_P2;Temp;Humidity;BMP_temperature;BMP_pressure;BME280_temperature;BME280_humidity;BME280_pressure;Samples;Min_cycle;Max_cycle;Signal;HPM_P1;HPM_P2
2022/05/25 00:01:13;;;;;;;2.30;2.10;;;12.10;99.90;;;;;;5069139;28;20206;-73
2022/05/25 00:03:40;;;;;;;2.87;1.93;;;12.10;99.90;;;;;;5071231;28;20202;-73
2022/05/25 00:06:09;;;;;;;3.00;2.20;;;12.00;99.90;;;;;;5056257;28;20206;-73
2022/05/25 00:08:37;;;;;;;4.17;2.20;;;12.00;99.90;;;;;;5060793;28;20194;-73
2022/05/25 00:11:05;;;;;;;3.07;2.00;;;12.00;99.90;;;;;;5069815;28;20602;-73
2022/05/25 00:13:33;;;;;;;2.40;2.20;;;12.00;99.90;;;;;;5071691;28;20202;-73
2022/05/25 00:16:00;;;;;;;3.07;2.27;;;12.10;99.90;;;;;;5070231;28;20244;-74
2022/05/25 00:18:27;;;;;;;3.67;2.20;;;12.10;99.90;;;;;;5071135;28;20713;-73
2022/05/25 00:20:53;;;;;;;4.47;2.50;;;12.20;99.90;;;;;;5064089;28;20252;-73
2022/05/25 00:23:20;;;;;;;3.50;2.60;;;12.20;99.90;;;;;;5067787;28;20588;-74
2022/05/25 00:25:47;;;;;;;3.83;2.33;;;12.10;99.90;;;;;;5054633;28;20657;-74
2022/05/25 00:28:16;;;;;;;2.50;2.30;;;12.10;99.90;;;;;;5062413;28;20264;-73
2022/05/25 00:30:45;;;;;;;3.13;2.43;;;12.10;99.90;;;;;;5066647;28;20633;-73
2022/05/25 00:33:13;;;;;;;4.50;2.77;;;12.00;99.90;;;;;;5064506;28;20239;-73
2022/05/25 00:35:42;;;;;;;3.93;2.60;;;12.00;99.90;;;;;;5071521;28;20272;-73
2022/05/25 00:38:09;;;;;;;5.77;2.53;;;12.00;99.90;;;;;;5063855;28;20281;-74
2022/05/25 00:40:39;;;;;;;4.97;2.50;;;12.10;99.90;;;;;;5063682;28;20551;-74
2022/05/25 00:43:07;;;;;;;4.40;2.50;;;12.10;99.90;;;;;;5069377;28;20596;-74
2022/05/25 00:45:43;;;;;;;2.93;2.50;;;12.10;99.90;;;;;;5070580;28;20653;-74
2022/05/25 00:48:23;;;;;;;3.40;2.33;;;12.10;99.90;;;;;;5070720;28;20251;-74
2022/05/25 00:53:35;;;;;;;4.67;2.40;;;12.00;99.90;;;;;;5068980;28;20260;-74
2022/05/25 00:56:03;;;;;;;4.07;2.63;;;12.00;99.90;;;;;;5061669;28;20367;-74
2022/05/25 00:58:30;;;;;;;3.07;2.40;;;12.00;99.90;;;;;;5073207;28;20198;-74
2022/05/25 01:00:59;;;;;;;3.93;2.63;;;12.10;99.90;;;;;;5073776;28;20206;-74
2022/05/25 01:03:26;;;;;;;4.90;2.50;;;12.10;99.90;;;;;;5073924;28;20273;-74
2022/05/25 01:06:00;;;;;;;3.30;2.33;;;12.00;99.90;;;;;;5070660;28;20267;-74
2022/05/25 01:08:39;;;;;;;3.10;2.30;;;12.00;99.90;;;;;;5073379;28;20636;-74
2022/05/25 01:11:21;;;;;;;2.43;2.27;;;12.00;99.90;;;;;;5067275;28;20296;-74
2022/05/25 01:13:57;;;;;;;2.43;2.23;;;12.00;99.90;;;;;;5063709;28;20202;-74
2022/05/25 01:16:34;;;;;;;2.30;2.10;;;12.10;99.90;;;;;;5073358;28;20194;-74
2022/05/25 01:19:13;;;;;;;2.70;2.50;;;11.90;99.90;;;;;;5071382;28;20225;-74
2022/05/25 01:21:49;;;;;;;2.70;2.40;;;11.90;99.90;;;;;;5053297;28;20198;-74
2022/05/25 01:24:30;;;;;;;4.40;2.47;;;11.80;99.90;;;;;;5066053;28;20214;-74
2022/05/25 01:27:22;;;;;;;2.73;2.30;;;11.80;99.90;;;;;;5053707;28;20641;-74
2022/05/25 01:30:06;;;;;;;4.20;2.67;;;11.70;99.90;;;;;;5071972;28;20198;-74
2022/05/25 01:32:41;;;;;;;4.83;2.60;;;11.60;99.90;;;;;;5073897;28;20554;-74
2022/05/25 01:35:16;;;;;;;3.50;2.87;;;11.80;99.90;;;;;;5072889;28;20279;-73
2022/05/25 01:37:51;;;;;;;8.33;2.93;;;11.70;99.90;;;;;;5074001;28;20263;-74
2022/05/25 01:40:24;;;;;;;5.80;2.60;;;11.60;99.90;;;;;;5070267;28;20202;-74
2022/05/25 01:42:58;;;;;;;3.10;2.70;;;11.80;99.90;;;;;;5072129;28;20202;-74
2022/05/25 01:45:30;;;;;;;2.70;2.50;;;11.70;99.90;;;;;;5070923;28;20210;-74
2022/05/25 01:48:01;;;;;;;5.60;2.63;;;11.60;99.90;;;;;;5072570;28;20198;-74
2022/05/25 01:50:34;;;;;;;3.00;2.70;;;11.50;99.90;;;;;;5056125;28;20253;-74
2022/05/25 01:53:04;;;;;;;3.67;2.70;;;11.50;99.90;;;;;;5068448;28;20604;-72
2022/05/25 01:55:42;;;;;;;2.70;2.50;;;11.40;99.90;;;;;;5059377;28;20280;-72
2022/05/25 01:58:12;;;;;;;3.27;2.53;;;11.40;99.90;;;;;;5069246;28;20710;-72
2022/05/25 02:00:43;;;;;;;2.83;2.60;;;11.30;99.90;;;;;;5069644;28;20207;-72
2022/05/25 02:06:18;;;;;;;2.87;2.50;;;11.50;99.90;;;;;;5072291;28;20309;-72
2022/05/25 02:09:03;;;;;;;5.57;3.90;;;11.40;99.90;;;;;;5070550;28;20194;-72
2022/05/25 02:11:34;;;;;;;8.03;4.27;;;11.20;99.90;;;;;;5071961;28;20198;-72
2022/05/25 02:14:10;;;;;;;9.67;5.63;;;11.30;99.90;;;;;;5070381;28;20202;-72
2022/05/25 02:16:55;;;;;;;24.57;15.43;;;11.20;99.90;;;;;;5057843;28;20198;-72
2022/05/25 02:19:27;;;;;;;20.40;12.30;;;11.20;99.90;;;;;;5065916;28;20203;-72
2022/05/25 02:21:57;;;;;;;6.40;3.87;;;11.20;99.90;;;;;;5070556;28;20245;-72
2022/05/25 02:24:29;;;;;;;4.90;2.90;;;11.10;99.90;;;;;;5065187;28;20211;-72
2022/05/25 02:27:02;;;;;;;3.40;3.07;;;11.20;99.90;;;;;;5070881;28;20190;-72
2022/05/25 02:29:33;;;;;;;3.67;2.63;;;11.10;99.90;;;;;;5070542;28;20199;-72
2022/05/25 02:32:06;;;;;;;3.97;2.50;;;11.00;99.90;;;;;;5071901;28;20609;-72
2022/05/25 02:34:34;;;;;;;4.60;2.70;;;11.10;99.90;;;;;;5065183;28;20720;-72
2022/05/25 02:37:05;;;;;;;5.67;2.87;;;11.00;99.90;;;;;;5071164;28;20198;-72
2022/05/25 02:39:32;;;;;;;6.53;2.73;;;11.00;99.90;;;;;;5060509;28;20210;-72
2022/05/25 02:42:00;;;;;;;5.10;3.37;;;11.00;99.90;;;;;;5070755;28;20666;-72
2022/05/25 02:44:27;;;;;;;4.17;2.90;;;11.00;99.90;;;;;;5067289;28;20267;-72
2022/05/25 02:46:54;;;;;;;3.40;3.10;;;11.00;99.90;;;;;;5071583;28;20282;-72
2022/05/25 02:49:23;;;;;;;4.50;2.80;;;11.00;99.90;;;;;;5066015;28;20215;-72
2022/05/25 02:51:50;;;;;;;3.30;2.67;;;11.00;99.90;;;;;;5055014;28;20225;-72
2022/05/25 02:54:21;;;;;;;3.53;2.60;;;11.10;99.90;;;;;;5067509;28;20257;-72
2022/05/25 02:56:48;;;;;;;3.37;2.27;;;11.10;99.90;;;;;;5054737;28;20260;-72
2022/05/25 02:59:16;;;;;;;4.10;3.00;;;11.00;99.90;;;;;;5070666;28;20195;-72
2022/05/25 03:01:43;;;;;;;4.10;2.40;;;11.10;99.90;;;;;;5055035;28;20199;-72
2022/05/25 03:04:10;;;;;;;2.80;2.50;;;11.10;99.90;;;;;;5067152;28;20203;-72
2022/05/25 03:06:39;;;;;;;3.30;2.70;;;11.00;99.90;;;;;;5060748;28;20202;-71
2022/05/25 03:09:06;;;;;;;3.50;3.00;;;11.10;99.90;;;;;;5066951;28;20261;-71
2022/05/25 03:11:33;;;;;;;4.37;2.80;;;11.10;99.90;;;;;;5062386;28;20209;-71
2022/05/25 03:14:00;;;;;;;7.17;2.57;;;11.20;99.90;;;;;;5064210;28;20202;-71
2022/05/25 03:16:27;;;;;;;4.77;2.50;;;11.20;99.90;;;;;;5060497;28;20231;-72
2022/05/25 03:18:54;;;;;;;4.10;2.93;;;11.10;99.90;;;;;;5051440;28;20236;-72
2022/05/25 03:21:21;;;;;;;5.10;2.70;;;11.10;99.90;;;;;;5052427;28;20207;-72
2022/05/25 03:23:50;;;;;;;4.73;2.50;;;11.20;99.90;;;;;;5050549;28;20210;-72
2022/05/25 03:26:17;;;;;;;6.03;2.80;;;11.10;99.90;;;;;;5069948;28;20210;-72
2022/05/25 03:28:44;;;;;;;3.27;2.53;;;11.20;99.90;;;;;;5084843;28;20246;-72
2022/05/25 03:31:12;;;;;;;4.20;2.60;;;11.00;99.90;;;;;;5051915;28;20253;-72
2022/05/25 03:33:39;;;;;;;3.83;2.60;;;11.10;99.90;;;;;;5051966;28;20191;-72
2022/05/25 03:36:07;;;;;;;4.77;2.50;;;11.10;99.90;;;;;;5051570;28;20223;-72
2022/05/25 03:38:34;;;;;;;2.80;2.50;;;11.10;99.90;;;;;;5050444;28;20261;-72
2022/05/25 03:41:03;;;;;;;3.03;2.67;;;11.10;99.90;;;;;;5051597;28;20210;-72
2022/05/25 03:43:33;;;;;;;3.40;2.57;;;11.00;99.90;;;;;;5050741;28;20637;-72
2022/05/25 03:46:00;;;;;;;2.97;2.47;;;11.20;99.90;;;;;;5051189;28;20210;-72
2022/05/25 03:48:27;;;;;;;5.70;3.00;;;11.20;99.90;;;;;;5051271;28;20202;-72
2022/05/25 03:50:54;;;;;;;3.23;2.20;;;11.10;99.90;;;;;;5050812;28;20605;-72
2022/05/25 03:53:21;;;;;;;4.20;2.30;;;11.10;99.90;;;;;;5051219;28;20226;-72
2022/05/25 03:55:48;;;;;;;3.30;2.47;;;11.30;99.90;;;;;;5050871;28;20245;-72
2022/05/25 03:58:17;;;;;;;3.50;2.57;;;11.50;99.90;;;;;;5051421;28;20199;-72
2022/05/25 04:00:44;;;;;;;5.17;2.90;;;11.50;99.90;;;;;;5050700;28;20244;-72
2022/05/25 04:03:14;;;;;;;4.40;2.50;;;12.00;99.90;;;;;;5052254;28;20627;-72
2022/05/25 04:05:42;;;;;;;2.97;2.57;;;12.00;99.90;;;;;;5051198;28;20237;-72
2022/05/25 04:08:10;;;;;;;4.00;2.40;;;11.70;99.90;;;;;;5051074;28;20203;-72
2022/05/25 04:10:38;;;;;;;3.83;2.40;;;11.70;99.90;;;;;;5050805;28;20340;-72
2022/05/25 04:13:05;;;;;;;4.73;2.63;;;12.00;99.90;;;;;;5051332;28;20195;-72
2022/05/25 04:15:35;;;;;;;3.37;2.60;;;11.80;99.90;;;;;;5051135;28;20276;-72
2022/05/25 04:18:02;;;;;;;5.43;2.67;;;11.90;99.90;;;;;;5051699;28;20570;-72
2022/05/25 04:20:31;;;;;;;5.67;2.80;;;11.70;99.90;;;;;;5050692;28;20718;-72
2022/05/25 04:22:58;;;;;;;3.13;2.47;;;12.30;99.90;;;;;;5051008;28;20607;-72
2022/05/25 04:25:26;;;;;;;2.63;2.43;;;12.90;99.90;;;;;;5051353;28;20206;-72
2022/05/25 04:27:55;;;;;;;2.87;2.40;;;12.70;99.90;;;;;;5050715;28;20238;-72
2022/05/25 04:30:25;;;;;;;3.10;2.40;;;12.80;99.90;;;;;;5053155;28;20650;-72
2022/05/25 04:32:53;;;;;;;4.30;2.57;;;12.30;99.90;;;;;;5055821;28;20268;-72
2022/05/25 04:35:21;;;;;;;4.37;3.00;;;12.20;99.90;;;;;;5054565;28;20268;-72
2022/05/25 04:37:52;;;;;;;5.33;2.53;;;12.10;99.90;;;;;;5054391;28;20201;-72
2022/05/25 04:40:22;;;;;;;2.50;2.20;;;12.40;99.90;;;;;;5072605;28;20263;-72
2022/05/25 04:42:50;;;;;;;2.60;2.40;;;12.60;99.90;;;;;;5073582;28;20196;-72
2022/05/25 04:45:18;;;;;;;4.90;2.80;;;13.00;99.90;;;;;;5069969;28;20233;-72
2022/05/25 04:47:46;;;;;;;6.07;3.20;;;13.20;99.90;;;;;;5075251;28;20199;-72
2022/05/25 04:50:17;;;;;;;5.50;3.40;;;12.80;99.90;;;;;;5063204;28;20539;-72
2022/05/25 04:52:44;;;;;;;5.30;3.47;;;12.60;99.90;;;;;;5060791;28;20252;-72
2022/05/25 04:57:19;;;;;;;4.27;3.57;;;12.40;99.90;;;;;;5065392;28;20688;-72
2022/05/25 04:57:58;;;;;;;6.50;3.80;;;12.50;99.90;;;;;;5065409;28;20194;-72
2022/05/25 05:00:26;;;;;;;5.10;3.63;;;12.30;99.90;;;;;;5063378;28;20260;-72
2022/05/25 05:02:53;;;;;;;6.83;3.90;;;12.40;99.90;;;;;;5068749;28;20201;-72
2022/05/25 05:05:22;;;;;;;6.37;4.27;;;12.30;99.90;;;;;;5060736;28;20206;-72
2022/05/25 05:07:49;;;;;;;6.17;4.60;;;12.40;99.90;;;;;;5072420;28;20245;-73
2022/05/25 05:10:16;;;;;;;5.17;4.07;;;12.50;99.90;;;;;;5059413;28;20202;-69
2022/05/25 05:12:44;;;;;;;5.27;4.00;;;12.60;99.90;;;;;;5063044;28;20246;-72
2022/05/25 05:15:12;;;;;;;8.17;5.00;;;12.70;99.90;;;;;;5064242;28;20218;-72
2022/05/25 05:17:39;;;;;;;6.80;4.40;;;12.80;99.90;;;;;;5059707;28;20203;-72
2022/05/25 05:20:07;;;;;;;5.57;4.43;;;13.00;99.90;;;;;;5065487;28;20272;-72
2022/05/25 05:22:36;;;;;;;7.33;4.43;;;13.40;99.90;;;;;;5060813;28;20264;-72
2022/05/25 05:25:03;;;;;;;6.03;4.40;;;13.50;99.90;;;;;;5061965;28;20198;-72
2022/05/25 05:27:30;;;;;;;7.43;3.90;;;14.20;99.90;;;;;;5063951;28;20257;-72
2022/05/25 05:30:01;;;;;;;5.27;4.30;;;15.10;99.90;;;;;;5069005;28;20202;-72
2022/05/25 05:32:30;;;;;;;5.27;3.67;;;14.80;99.90;;;;;;5064891;28;20203;-72
2022/05/25 05:34:57;;;;;;;4.33;3.63;;;14.10;99.90;;;;;;5064568;28;20198;-72
2022/05/25 05:37:31;;;;;;;5.93;4.17;;;14.70;99.90;;;;;;5059916;28;20669;-72
2022/05/25 05:40:02;;;;;;;4.23;3.80;;;14.30;99.90;;;;;;5065825;28;20247;-72
2022/05/25 05:42:30;;;;;;;6.47;4.37;;;14.40;99.90;;;;;;5058532;28;20609;-72
2022/05/25 05:45:02;;;;;;;4.97;4.10;;;14.60;99.90;;;;;;5063156;28;20202;-72
2022/05/25 05:47:33;;;;;;;6.07;4.27;;;15.30;99.90;;;;;;5061245;28;20234;-72
2022/05/25 05:50:00;;;;;;;6.10;4.20;;;15.10;99.90;;;;;;5060715;28;20214;-72
2022/05/25 05:52:28;;;;;;;10.73;7.85;;;14.30;99.90;;;;;;5064755;28;20210;-72
2022/05/25 05:54:56;;;;;;;7.50;4.53;;;14.20;99.90;;;;;;5065072;28;20203;-72
2022/05/25 05:57:25;;;;;;;6.70;4.53;;;14.10;99.90;;;;;;5061402;28;20758;-72
2022/05/25 05:59:52;;;;;;;7.57;4.40;;;14.00;99.90;;;;;;5063293;28;20207;-72
2022/05/25 06:02:19;;;;;;;6.57;4.80;;;13.60;99.90;;;;;;5066969;28;20562;-72
2022/05/25 06:04:46;;;;;;;9.80;5.37;;;13.80;99.90;;;;;;5060642;28;20203;-72
2022/05/25 06:07:13;;;;;;;7.30;5.13;;;13.70;99.90;;;;;;5065848;28;20250;-72
2022/05/25 06:09:40;;;;;;;10.63;5.77;;;13.90;99.90;;;;;;5057665;28;20211;-72
2022/05/25 06:12:08;;;;;;;8.27;5.70;;;14.00;99.90;;;;;;5069405;28;20260;-72
2022/05/25 06:14:37;;;;;;;8.53;5.63;;;13.80;99.90;;;;;;5061902;28;20206;-72
2022/05/25 06:19:49;;;;;;;10.50;5.80;;;14.00;99.90;;;;;;5063348;28;20872;-72
2022/05/25 06:22:18;;;;;;;8.00;5.30;;;13.90;99.90;;;;;;5062288;28;20253;-72
2022/05/25 06:24:47;;;;;;;7.13;5.53;;;14.00;99.90;;;;;;5068725;28;20210;-72
2022/05/25 06:27:14;;;;;;;9.97;6.17;;;14.10;99.90;;;;;;5063542;28;20566;-72
2022/05/25 06:29:47;;;;;;;7.87;5.40;;;13.90;99.90;;;;;;5062318;28;20209;-72
2022/05/25 06:32:15;;;;;;;10.63;6.50;;;14.10;99.90;;;;;;5060414;28;20203;-72
2022/05/25 06:34:47;;;;;;;11.30;6.40;;;14.10;99.90;;;;;;5064770;28;20207;-72
2022/05/25 06:37:16;;;;;;;10.13;6.20;;;14.00;99.90;;;;;;5057327;28;20302;-72
2022/05/25 06:39:43;;;;;;;10.50;6.50;;;14.10;99.90;;;;;;5060645;28;20218;-72
2022/05/25 06:42:11;;;;;;;9.73;6.53;;;14.20;99.90;;;;;;5061542;28;20206;-72
2022/05/25 06:44:38;;;;;;;10.90;6.50;;;14.40;99.90;;;;;;5066036;28;20202;-72
2022/05/25 06:47:07;;;;;;;9.43;6.33;;;14.30;99.90;;;;;;5063742;28;20633;-72
2022/05/25 06:49:34;;;;;;;10.60;6.90;;;14.40;99.90;;;;;;5060821;28;20202;-72
2022/05/25 06:52:01;;;;;;;10.17;7.07;;;14.30;99.90;;;;;;5068647;28;20226;-72
2022/05/25 06:54:28;;;;;;;12.50;7.80;;;14.40;99.90;;;;;;5060415;28;20225;-71
2022/05/25 06:56:55;;;;;;;11.90;7.90;;;14.60;99.90;;;;;;5062309;28;20214;-71
2022/05/25 06:59:23;;;;;;;9.77;6.83;;;14.70;99.90;;;;;;5060117;28;20207;-71
2022/05/25 07:01:50;;;;;;;11.90;7.80;;;14.80;99.90;;;;;;5063268;28;20206;-71
2022/05/25 07:04:18;;;;;;;11.20;7.60;;;14.90;99.90;;;;;;5059876;28;20203;-71
2022/05/25 07:06:45;;;;;;;11.50;7.30;;;14.80;99.90;;;;;;5067208;28;20203;-72
2022/05/25 07:09:13;;;;;;;9.70;7.37;;;14.70;99.90;;;;;;5055489;28;20203;-72
2022/05/25 07:11:42;;;;;;;12.73;7.63;;;14.80;99.90;;;;;;5062734;28;20211;-72
2022/05/25 07:14:09;;;;;;;12.23;7.30;;;14.80;99.90;;;;;;5064261;28;20664;-72
2022/05/25 07:16:36;;;;;;;11.03;7.50;;;15.00;99.90;;;;;;5063794;28;20561;-72
2022/05/25 07:19:04;;;;;;;10.17;7.60;;;14.90;99.90;;;;;;5062142;28;20667;-71
2022/05/25 07:21:33;;;;;;;11.63;7.43;;;14.70;99.90;;;;;;5060242;28;20624;-72
2022/05/25 07:24:01;;;;;;;12.03;7.67;;;15.00;99.90;;;;;;5062539;28;20238;-72
2022/05/25 07:26:30;;;;;;;10.73;7.40;;;15.20;99.90;;;;;;5059591;28;20205;-72
2022/05/25 07:28:57;;;;;;;9.97;6.90;;;15.10;99.90;;;;;;5060114;28;20206;-72
2022/05/25 07:31:28;;;;;;;11.97;7.57;;;15.20;99.90;;;;;;5060235;28;20653;-72
2022/05/25 07:34:01;;;;;;;11.23;6.60;;;15.40;99.90;;;;;;5063360;28;20272;-72
2022/05/25 07:36:29;;;;;;;8.73;6.07;;;15.30;99.90;;;;;;5058257;28;20230;-72
2022/05/25 07:39:02;;;;;;;9.17;5.70;;;15.40;99.90;;;;;;5063592;28;20234;-72
2022/05/25 07:41:29;;;;;;;6.70;5.13;;;15.40;99.90;;;;;;5064757;28;20256;-72
2022/05/25 07:43:58;;;;;;;7.47;4.70;;;15.20;99.90;;;;;;5055648;28;20234;-72
2022/05/25 07:46:27;;;;;;;8.07;4.70;;;15.40;99.90;;;;;;5063183;28;20538;-72
2022/05/25 07:48:54;;;;;;;11.13;5.60;;;15.60;99.90;;;;;;5060935;28;20198;-72
2022/05/25 07:51:21;;;;;;;6.10;5.13;;;15.50;99.90;;;;;;5058133;28;20609;-71
2022/05/25 07:53:57;;;;;;;10.13;4.70;;;15.50;99.90;;;;;;5061190;28;20259;-72
2022/05/25 07:56:26;;;;;;;7.10;4.60;;;15.70;99.90;;;;;;5062150;28;20222;-72
2022/05/25 07:58:55;;;;;;;6.17;4.93;;;16.00;99.90;;;;;;5062561;28;20202;-72
2022/05/25 08:06:52;;;;;;;6.17;4.17;;;16.00;99.90;;;;;;5066124;28;20205;-72
2022/05/25 08:09:20;;;;;;;5.67;4.10;;;16.20;99.90;;;;;;5057318;28;20204;-72
2022/05/25 08:11:48;;;;;;;6.47;3.77;;;16.50;99.90;;;;;;5068996;28;20207;-72
2022/05/25 08:14:16;;;;;;;4.70;4.20;;;16.50;99.90;;;;;;5056885;28;20203;-72
2022/05/25 08:16:43;;;;;;;9.17;4.33;;;16.50;99.90;;;;;;5059492;28;20230;-72
2022/05/25 08:19:10;;;;;;;6.20;4.03;;;16.50;98.40;;;;;;5067095;28;20592;-72
2022/05/25 08:21:37;;;;;;;7.73;4.33;;;16.60;99.90;;;;;;5058509;28;20207;-72
2022/05/25 08:24:05;;;;;;;3.78;3.45;;;16.60;99.90;;;;;;5062325;28;20202;-72
2022/05/25 08:26:32;;;;;;;6.93;3.87;;;16.70;99.90;;;;;;5057809;28;20207;-72
2022/05/25 08:29:00;;;;;;;5.30;3.60;;;16.50;98.10;;;;;;5060117;28;20772;-72
2022/05/25 08:31:27;;;;;;;5.90;3.80;;;16.80;99.40;;;;;;5067779;28;20272;-73
2022/05/25 08:33:54;;;;;;;5.07;4.13;;;16.70;94.60;;;;;;5064537;28;20244;-72
2022/05/25 08:36:21;;;;;;;6.55;3.53;;;16.80;92.20;;;;;;5064056;28;20291;-72
2022/05/25 08:38:48;;;;;;;6.00;4.30;;;16.90;95.60;;;;;;5068584;28;20526;-72
2022/05/25 08:41:16;;;;;;;4.72;4.00;;;17.00;95.80;;;;;;5059067;28;20211;-72
2022/05/25 08:43:47;;;;;;;7.00;3.95;;;17.20;92.80;;;;;;5065007;28;20207;-72
2022/05/25 08:46:20;;;;;;;7.68;3.65;;;17.50;91.70;;;;;;5063742;28;20202;-72
2022/05/25 08:48:48;;;;;;;3.35;3.05;;;17.90;88.50;;;;;;5070063;28;20291;-72
2022/05/25 08:51:18;;;;;;;5.80;3.22;;;17.80;84.60;;;;;;5061708;28;20207;-72
2022/05/25 08:53:45;;;;;;;5.50;2.97;;;18.20;83.00;;;;;;5068729;28;20206;-72
2022/05/25 08:56:20;;;;;;;4.07;3.05;;;18.80;78.60;;;;;;5066463;28;20226;-72
2022/05/25 08:58:51;;;;;;;4.93;3.60;;;18.00;77.70;;;;;;5068419;28;20685;-72
2022/05/25 09:01:26;;;;;;;4.28;3.22;;;17.60;81.10;;;;;;5063790;28;20621;-72
2022/05/25 09:04:03;;;;;;;5.80;3.08;;;17.30;81.10;;;;;;5056751;28;20807;-72
2022/05/25 09:06:40;;;;;;;4.97;2.97;;;17.70;84.20;;;;;;5058942;28;20212;-72
2022/05/25 09:09:13;;;;;;;2.97;2.78;;;18.20;76.90;;;;;;5062437;28;20288;-72
2022/05/25 09:11:47;;;;;;;4.57;2.85;;;18.30;71.30;;;;;;5065217;28;20210;-72
2022/05/25 09:14:18;;;;;;;3.80;2.65;;;17.80;73.30;;;;;;5061515;28;20241;-71
2022/05/25 09:16:51;;;;;;;4.05;2.70;;;18.10;73.50;;;;;;5059599;28;20223;-72
2022/05/25 09:19:20;;;;;;;5.82;2.63;;;18.40;71.40;;;;;;5066578;28;20251;-72
2022/05/25 09:21:53;;;;;;;3.67;2.72;;;19.00;70.50;;;;;;5065362;28;20206;-72
2022/05/25 09:24:23;;;;;;;2.95;2.15;;;19.40;64.60;;;;;;5064514;28;20649;-72
2022/05/25 09:26:50;;;;;;;3.60;2.53;;;19.90;61.00;;;;;;5073721;28;20198;-72
2022/05/25 09:29:18;;;;;;;3.78;2.20;;;20.00;57.80;;;;;;5069168;28;20637;-72
2022/05/25 09:31:51;;;;;;;3.58;2.08;;;20.50;53.50;;;;;;5073181;28;20210;-72
2022/05/25 09:34:26;;;;;;;2.30;2.10;;;20.50;52.90;;;;;;5067968;28;20234;-72
2022/05/25 09:36:59;;;;;;;2.30;2.10;;;20.60;50.70;;;;;;5072509;28;20780;-72
2022/05/25 09:39:31;;;;;;;4.05;2.92;;;21.00;53.90;;;;;;5073305;28;20285;-72
2022/05/25 09:42:00;;;;;;;3.90;2.45;;;20.80;46.10;;;;;;5071604;28;20293;-72
2022/05/25 09:44:30;;;;;;;1.98;1.85;;;20.90;45.40;;;;;;5067670;28;20569;-72
2022/05/25 09:47:02;;;;;;;2.92;2.08;;;20.90;45.10;;;;;;5063174;28;20195;-72
2022/05/25 09:49:36;;;;;;;4.43;1.95;;;21.00;47.80;;;;;;5065140;28;20259;-72
2022/05/25 09:52:12;;;;;;;2.25;2.05;;;20.50;44.30;;;;;;5074211;28;20229;-72
2022/05/25 09:54:45;;;;;;;2.15;1.85;;;20.40;41.40;;;;;;5065712;28;20208;-72
2022/05/25 09:57:27;;;;;;;1.92;1.77;;;20.30;42.70;;;;;;5063291;28;20296;-72
2022/05/25 10:00:00;;;;;;;3.30;1.90;;;20.00;43.70;;;;;;5060472;28;20719;-72
2022/05/25 10:02:35;;;;;;;2.28;2.10;;;19.90;44.50;;;;;;5066106;28;20722;-71
2022/05/25 10:05:25;;;;;;;2.33;2.10;;;19.60;45.50;;;;;;5062089;28;20286;-71
2022/05/25 10:07:55;;;;;;;2.45;2.10;;;20.50;44.10;;;;;;5064414;28;20644;-74
2022/05/25 10:10:30;;;;;;;2.20;2.10;;;21.00;40.70;;;;;;5064770;28;20257;-74
2022/05/25 10:13:04;;;;;;;5.07;2.45;;;21.00;41.60;;;;;;5063876;28;20649;-74
2022/05/25 10:15:34;;;;;;;5.20;2.78;;;20.40;41.40;;;;;;5069613;28;20202;-74
2022/05/25 10:18:04;;;;;;;4.75;2.58;;;19.90;39.20;;;;;;5060716;28;20269;-71
2022/05/25 10:20:35;;;;;;;4.70;2.53;;;20.50;45.10;;;;;;5069300;28;20245;-71
2022/05/25 10:23:08;;;;;;;2.50;2.20;;;20.80;38.70;;;;;;5059586;28;20205;-71
2022/05/25 10:25:40;;;;;;;3.58;2.42;;;21.30;39.80;;;;;;5063242;28;20207;-71
2022/05/25 10:28:20;;;;;;;2.67;2.10;;;21.10;38.10;;;;;;5065779;28;20641;-71
2022/05/25 10:36:49;;;;;;;3.08;2.20;;;21.20;44.50;;;;;;5063367;28;20295;-72
2022/05/25 10:39:24;;;;;;;2.72;2.03;;;21.40;38.70;;;;;;5070438;28;20264;-72
2022/05/25 10:42:03;;;;;;;3.95;2.40;;;21.80;39.60;;;;;;5069104;28;20206;-73
2022/05/25 10:44:37;;;;;;;4.10;2.00;;;20.80;39.20;;;;;;5064388;28;20689;-74
2022/05/25 10:47:08;;;;;;;2.10;1.90;;;20.90;40.00;;;;;;5069159;28;20536;-73
2022/05/25 10:49:40;;;;;;;1.85;1.75;;;20.50;36.50;;;;;;5066023;28;20203;-73
2022/05/25 10:52:13;;;;;;;2.22;2.03;;;20.60;34.50;;;;;;5066454;28;20334;-73
2022/05/25 10:54:59;;;;;;;3.83;1.90;;;20.20;37.70;;;;;;5058623;28;20226;-73
2022/05/25 10:58:11;;;;;;;1.67;1.58;;;20.00;41.30;;;;;;5060678;28;20226;-72
2022/05/25 11:00:50;;;;;;;3.45;1.58;;;20.20;35.40;;;;;;5034038;28;20214;-72
2022/05/25 11:03:56;;;;;;;1.65;1.55;;;20.90;29.80;;;;;;5068533;28;20241;-72
2022/05/25 11:06:40;;;;;;;1.90;1.45;;;20.70;29.40;;;;;;5064761;28;20244;-74
2022/05/25 11:09:18;;;;;;;4.15;1.30;;;20.30;31.10;;;;;;5063104;28;20209;-73
2022/05/25 11:11:56;;;;;;;1.92;1.33;;;20.30;35.30;;;;;;5064202;28;20338;-73
2022/05/25 11:14:47;;;;;;;1.95;1.63;;;21.30;35.60;;;;;;5056232;28;20263;-73
2022/05/25 11:17:28;;;;;;;1.70;1.60;;;21.40;29.40;;;;;;5066021;28;20665;-74
2022/05/25 11:20:10;;;;;;;1.75;1.50;;;20.20;29.20;;;;;;5061617;28;20623;-73
2022/05/25 11:22:57;;;;;;;2.22;1.10;;;21.00;30.80;;;;;;5065110;28;20203;-73
2022/05/25 11:25:36;;;;;;;3.58;1.30;;;21.30;30.90;;;;;;5064797;28;20198;-74
2022/05/25 11:28:17;;;;;;;2.13;1.30;;;21.40;27.80;;;;;;5060861;28;20199;-74
2022/05/25 11:30:55;;;;;;;1.27;1.08;;;21.50;29.40;;;;;;5059861;28;20291;-74
2022/05/25 11:34:02;;;;;;;1.10;1.00;;;22.20;31.80;;;;;;5059352;28;20202;-70
2022/05/25 11:36:46;;;;;;;0.90;0.85;;;22.40;25.80;;;;;;5066995;28;20210;-73
2022/05/25 11:39:30;;;;;;;1.75;1.10;;;22.90;25.60;;;;;;5056101;28;20199;-73
2022/05/25 11:42:07;;;;;;;1.13;0.68;;;22.80;25.30;;;;;;5063619;28;20675;-73
2022/05/25 11:44:52;;;;;;;0.80;0.68;;;22.70;22.30;;;;;;5060227;28;20206;-73
2022/05/25 11:47:38;;;;;;;3.00;1.10;;;22.70;24.00;;;;;;5069045;28;20201;-74
2022/05/25 11:50:22;;;;;;;1.08;1.08;;;22.20;23.00;;;;;;5053717;28;20202;-73
2022/05/25 11:53:12;;;;;;;0.98;0.98;;;22.00;24.40;;;;;;5060454;28;20202;-74
2022/05/25 11:55:49;;;;;;;4.15;1.55;;;22.00;22.50;;;;;;5067118;28;20213;-74
2022/05/25 11:58:27;;;;;;;0.70;0.70;;;22.20;23.20;;;;;;5055674;28;20226;-74
2022/05/25 12:01:02;;;;;;;1.65;0.90;;;22.50;21.10;;;;;;5062327;28;20198;-73
2022/05/25 12:04:05;;;;;;;1.00;0.90;;;21.90;23.80;;;;;;5062869;28;20202;-73
2022/05/25 12:06:53;;;;;;;1.00;0.50;;;22.40;22.40;;;;;;5060211;28;20205;-73
2022/05/25 12:09:36;;;;;;;1.33;0.85;;;22.60;23.90;;;;;;5066497;28;20570;-73
2022/05/25 12:12:15;;;;;;;3.05;0.95;;;23.00;21.30;;;;;;5056728;28;20541;-73
2022/05/25 12:14:54;;;;;;;4.15;1.30;;;23.40;23.20;;;;;;5064696;28;20208;-73
2022/05/25 12:17:29;;;;;;;2.22;0.63;;;23.00;21.40;;;;;;5057936;28;20227;-74
2022/05/25 12:19:58;;;;;;;1.25;0.75;;;23.00;20.40;;;;;;5067517;28;20205;-73
2022/05/25 12:22:30;;;;;;;1.17;0.60;;;22.10;19.70;;;;;;5056704;28;20706;-73
2022/05/25 12:25:02;;;;;;;3.28;0.60;;;21.70;19.60;;;;;;5055723;28;20572;-73
2022/05/25 12:27:40;;;;;;;1.52;0.70;;;22.00;20.60;;;;;;5067649;28;20210;-74
2022/05/25 12:30:11;;;;;;;1.02;0.77;;;21.60;21.30;;;;;;5058659;28;20211;-73
2022/05/25 12:32:40;;;;;;;0.98;0.63;;;22.10;20.40;;;;;;5063975;28;20199;-73
2022/05/25 12:35:11;;;;;;;3.53;1.10;;;22.40;20.60;;;;;;5058488;28;21448;-74
2022/05/25 12:37:41;;;;;;;0.90;0.80;;;22.70;19.30;;;;;;5060005;28;20258;-73
2022/05/25 12:40:10;;;;;;;0.88;0.57;;;22.50;21.10;;;;;;5065880;28;20206;-73
2022/05/25 12:42:41;;;;;;;1.85;1.48;;;22.60;20.70;;;;;;5060323;28;20653;-73
2022/05/25 12:48:33;;;;;;;1.30;0.77;;;22.20;18.90;;;;;;5063373;28;20251;-71
2022/05/25 12:51:05;;;;;;;3.17;0.85;;;21.40;17.30;;;;;;5058986;28;20207;-72
2022/05/25 12:53:35;;;;;;;2.83;0.80;;;21.30;19.30;;;;;;5071057;28;20711;-72
2022/05/25 12:56:05;;;;;;;2.60;0.50;;;21.40;20.60;;;;;;5069797;28;20229;-72
2022/05/25 12:58:41;;;;;;;1.83;0.50;;;21.50;23.10;;;;;;5061078;28;20226;-72
2022/05/25 13:01:27;;;;;;;0.80;0.80;;;21.40;21.30;;;;;;5067923;28;20198;-73
2022/05/25 13:04:17;;;;;;;1.45;0.93;;;21.70;20.80;;;;;;5065358;28;20722;-73
2022/05/25 13:07:27;;;;;;;2.33;0.70;;;22.50;22.60;;;;;;5064173;28;20198;-72
2022/05/25 13:09:53;;;;;;;1.05;0.82;;;22.10;19.40;;;;;;5063965;28;20204;-73
2022/05/25 13:12:46;;;;;;;0.57;0.57;;;21.90;17.30;;;;;;5071531;28;20311;-72
2022/05/25 13:15:41;;;;;;;0.98;0.63;;;22.20;21.20;;;;;;5068852;28;20298;-73
2022/05/25 13:18:09;;;;;;;1.63;0.98;;;22.70;22.10;;;;;;5064942;28;20681;-73
2022/05/25 13:20:59;;;;;;;2.22;0.80;;;23.30;21.70;;;;;;5061797;28;20203;-73
2022/05/25 13:24:03;;;;;;;3.08;0.90;;;23.30;21.40;;;;;;5068409;28;20199;-72
2022/05/25 13:26:40;;;;;;;1.13;0.85;;;22.80;20.50;;;;;;5066810;28;20571;-72
2022/05/25 13:29:18;;;;;;;0.80;0.80;;;22.70;22.10;;;;;;5068624;28;20207;-73
2022/05/25 13:31:51;;;;;;;1.00;0.90;;;22.30;19.60;;;;;;5064227;28;20190;-72
2022/05/25 13:34:19;;;;;;;2.67;0.80;;;22.10;19.60;;;;;;5066884;28;20203;-72